sensor_id;sensor_type;location;lat;lon;timestamp;P1;durP1;ratioP1;P2;durP2;ratioP2
76021;SDS011;64718;52.124;6.226;2023-12-22T00:02:01;5.90;;;1.40;;
76021;SDS011;64718;52.124;6.226;2023-12-22T00:04:28;4.10;;;0.50;;
76021;SDS011;64718;52.124;6.226;2023-12-22T00:06:55;7.15;;;0.50;;
76021;SDS011;64718;52.124;6.226;2023-12-22T00:09:22;8.02;;;1.33;;
76021;SDS011;64718;52.124;6.226;2023-12-22T00:11:49;8.73;;;1.20;;
76021;SDS011;64718;52.124;6.226;2023-12-22T00:14:15;10.18;;;1.05;;
76021;SDS011;64718;52.124;6.226;2023-12-22T00:16:42;7.30;;;1.83;;
76021;SDS011;64718;52.124;6.226;2023-12-22T00:19:08;6.18;;;0.65;;
76021;SDS011;64718;52.124;6.226;2023-12-22T00:21:35;3.13;;;0.63;;
76021;SDS011;64718;52.124;6.226;2023-12-22T00:24:01;3.38;;;0.73;;
76021;SDS011;64718;52.124;6.226;2023-12-22T00:26:30;5.53;;;1.23;;
76021;SDS011;64718;52.124;6.226;2023-12-22T00:28:56;3.38;;;0.47;;
76021;SDS011;64718;52.124;6.226;2023-12-22T00:31:23;5.88;;;0.82;;
76021;SDS011;64718;52.124;6.226;2023-12-22T00:33:49;7.50;;;0.63;;
76021;SDS011;64718;52.124;6.226;2023-12-22T00:36:16;5.82;;;0.55;;
76021;SDS011;64718;52.124;6.226;2023-12-22T00:38:43;6.60;;;0.60;;
76021;SDS011;64718;52.124;6.226;2023-12-22T00:41:10;6.55;;;0.73;;
76021;SDS011;64718;52.124;6.226;2023-12-22T00:43:38;3.33;;;0.63;;
76021;SDS011;64718;52.124;6.226;2023-12-22T00:46:04;6.32;;;1.55;;
76021;SDS011;64718;52.124;6.226;2023-12-22T00:48:31;3.65;;;0.50;;
76021;SDS011;64718;52.124;6.226;2023-12-22T00:50:58;8.02;;;0.82;;
76021;SDS011;64718;52.124;6.226;2023-12-22T00:53:24;5.10;;;0.80;;
76021;SDS011;64718;52.124;6.226;2023-12-22T00:55:51;3.78;;;0.60;;
76021;SDS011;64718;52.124;6.226;2023-12-22T00:58:17;4.07;;;0.70;;
76021;SDS011;64718;52.124;6.226;2023-12-22T01:00:45;3.78;;;0.20;;
76021;SDS011;64718;52.124;6.226;2023-12-22T01:03:12;2.50;;;0.57;;
76021;SDS011;64718;52.124;6.226;2023-12-22T01:05:38;5.65;;;0.93;;
76021;SDS011;64718;52.124;6.226;2023-12-22T01:08:05;11.65;;;0.98;;
76021;SDS011;64718;52.124;6.226;2023-12-22T01:10:32;3.25;;;0.50;;
76021;SDS011;64718;52.124;6.226;2023-12-22T01:12:58;4.85;;;0.50;;
76021;SDS011;64718;52.124;6.226;2023-12-22T01:15:25;3.13;;;0.57;;
76021;SDS011;64718;52.124;6.226;2023-12-22T01:17:53;2.47;;;0.30;;
76021;SDS011;64718;52.124;6.226;2023-12-22T01:20:19;4.70;;;0.77;;
76021;SDS011;64718;52.124;6.226;2023-12-22T01:22:46;5.70;;;0.47;;
76021;SDS011;64718;52.124;6.226;2023-12-22T01:25:12;2.05;;;0.20;;
76021;SDS011;64718;52.124;6.226;2023-12-22T01:27:39;4.88;;;0.32;;
76021;SDS011;64718;52.124;6.226;2023-12-22T01:30:06;5.03;;;0.43;;
76021;SDS011;64718;52.124;6.226;2023-12-22T01:32:33;1.33;;;0.52;;
76021;SDS011;64718;52.124;6.226;2023-12-22T01:35:03;4.45;;;0.47;;
76021;SDS011;64718;52.124;6.226;2023-12-22T01:37:34;6.60;;;0.75;;
76021;SDS011;64718;52.124;6.226;2023-12-22T01:40:00;2.92;;;0.65;;
76021;SDS011;64718;52.124;6.226;2023-12-22T01:42:27;2.17;;;0.10;;
76021;SDS011;64718;52.124;6.226;2023-12-22T01:44:54;5.10;;;0.80;;
76021;SDS011;64718;52.124;6.226;2023-12-22T01:47:20;2.35;;;0.55;;
76021;SDS011;64718;52.124;6.226;2023-12-22T01:49:47;8.30;;;0.82;;
76021;SDS011;64718;52.124;6.226;2023-12-22T01:52:15;2.00;;;0.10;;
76021;SDS011;64718;52.124;6.226;2023-12-22T01:54:43;0.90;;;0.40;;
76021;SDS011;64718;52.124;6.226;2023-12-22T01:57:09;2.92;;;0.30;;
76021;SDS011;64718;52.124;6.226;2023-12-22T01:59:40;3.20;;;0.52;;
76021;SDS011;64718;52.124;6.226;2023-12-22T02:02:06;2.88;;;0.75;;
76021;SDS011;64718;52.124;6.226;2023-12-22T02:04:33;5.05;;;0.63;;
76021;SDS011;64718;52.124;6.226;2023-12-22T02:07:01;2.35;;;0.43;;
76021;SDS011;64718;52.124;6.226;2023-12-22T02:09:30;3.60;;;0.30;;
76021;SDS011;64718;52.124;6.226;2023-12-22T02:11:56;0.63;;;0.20;;
76021;SDS011;64718;52.124;6.226;2023-12-22T02:14:23;3.20;;;0.98;;
76021;SDS011;64718;52.124;6.226;2023-12-22T02:16:51;1.83;;;0.30;;
76021;SDS011;64718;52.124;6.226;2023-12-22T02:19:23;2.53;;;0.50;;
76021;SDS011;64718;52.124;6.226;2023-12-22T02:21:59;2.63;;;0.10;;
76021;SDS011;64718;52.124;6.226;2023-12-22T02:24:27;2.92;;;0.22;;
76021;SDS011;64718;52.124;6.226;2023-12-22T02:26:55;0.55;;;0.08;;
76021;SDS011;64718;52.124;6.226;2023-12-22T02:29:28;4.53;;;0.20;;
76021;SDS011;64718;52.124;6.226;2023-12-22T02:31:57;6.85;;;0.30;;
76021;SDS011;64718;52.124;6.226;2023-12-22T02:34:28;2.33;;;0.32;;
76021;SDS011;64718;52.124;6.226;2023-12-22T02:36:57;0.88;;;0.20;;
76021;SDS011;64718;52.124;6.226;2023-12-22T02:39:24;3.50;;;0.50;;
76021;SDS011;64718;52.124;6.226;2023-12-22T02:41:52;2.28;;;0.47;;
76021;SDS011;64718;52.124;6.226;2023-12-22T02:44:19;1.17;;;0.20;;
76021;SDS011;64718;52.124;6.226;2023-12-22T02:46:46;0.38;;;0.03;;
76021;SDS011;64718;52.124;6.226;2023-12-22T02:49:12;0.70;;;0.13;;
76021;SDS011;64718;52.124;6.226;2023-12-22T02:51:39;1.92;;;0.30;;
76021;SDS011;64718;52.124;6.226;2023-12-22T02:54:05;1.23;;;0.10;;
76021;SDS011;64718;52.124;6.226;2023-12-22T02:56:32;2.20;;;0.40;;
76021;SDS011;64718;52.124;6.226;2023-12-22T02:58:59;1.30;;;0.13;;
76021;SDS011;64718;52.124;6.226;2023-12-22T03:01:26;2.78;;;0.20;;
76021;SDS011;64718;52.124;6.226;2023-12-22T03:03:52;2.53;;;0.93;;
76021;SDS011;64718;52.124;6.226;2023-12-22T03:06:19;1.25;;;0.40;;
76021;SDS011;64718;52.124;6.226;2023-12-22T03:08:45;5.20;;;0.43;;
76021;SDS011;64718;52.124;6.226;2023-12-22T03:11:12;5.20;;;0.63;;
76021;SDS011;64718;52.124;6.226;2023-12-22T03:13:38;2.47;;;0.20;;
76021;SDS011;64718;52.124;6.226;2023-12-22T03:16:09;2.50;;;0.20;;
76021;SDS011;64718;52.124;6.226;2023-12-22T03:18:37;3.65;;;0.35;;
76021;SDS011;64718;52.124;6.226;2023-12-22T03:21:04;2.00;;;0.38;;
76021;SDS011;64718;52.124;6.226;2023-12-22T03:23:30;0.20;;;0.03;;
76021;SDS011;64718;52.124;6.226;2023-12-22T03:25:57;3.45;;;0.50;;
76021;SDS011;64718;52.124;6.226;2023-12-22T03:28:23;1.35;;;0.65;;
76021;SDS011;64718;52.124;6.226;2023-12-22T03:30:50;1.98;;;0.32;;
76021;SDS011;64718;52.124;6.226;2023-12-22T03:33:17;4.03;;;0.73;;
76021;SDS011;64718;52.124;6.226;2023-12-22T03:35:44;3.17;;;0.60;;
76021;SDS011;64718;52.124;6.226;2023-12-22T03:38:10;7.07;;;0.47;;
76021;SDS011;64718;52.124;6.226;2023-12-22T03:40:38;2.40;;;0.38;;
76021;SDS011;64718;52.124;6.226;2023-12-22T03:43:04;1.15;;;0.45;;
76021;SDS011;64718;52.124;6.226;2023-12-22T03:45:31;0.52;;;0.32;;
76021;SDS011;64718;52.124;6.226;2023-12-22T03:47:57;3.28;;;0.40;;
76021;SDS011;64718;52.124;6.226;2023-12-22T03:50:25;1.67;;;0.10;;
76021;SDS011;64718;52.124;6.226;2023-12-22T03:52:52;1.20;;;0.52;;
76021;SDS011;64718;52.124;6.226;2023-12-22T03:55:18;4.72;;;0.50;;
76021;SDS011;64718;52.124;6.226;2023-12-22T03:57:45;2.03;;;0.35;;
76021;SDS011;64718;52.124;6.226;2023-12-22T04:00:12;1.55;;;0.85;;
76021;SDS011;64718;52.124;6.226;2023-12-22T04:02:39;1.13;;;0.30;;
76021;SDS011;64718;52.124;6.226;2023-12-22T04:05:06;2.08;;;0.55;;
76021;SDS011;64718;52.124;6.226;2023-12-22T04:07:34;3.50;;;0.30;;
76021;SDS011;64718;52.124;6.226;2023-12-22T04:10:01;2.92;;;0.25;;
76021;SDS011;64718;52.124;6.226;2023-12-22T04:12:28;1.42;;;0.28;;
76021;SDS011;64718;52.124;6.226;2023-12-22T04:14:54;1.55;;;0.20;;
76021;SDS011;64718;52.124;6.226;2023-12-22T04:17:21;1.98;;;0.22;;
76021;SDS011;64718;52.124;6.226;2023-12-22T04:19:47;5.82;;;0.60;;
76021;SDS011;64718;52.124;6.226;2023-12-22T04:22:14;2.03;;;0.30;;
76021;SDS011;64718;52.124;6.226;2023-12-22T04:24:42;1.63;;;0.52;;
76021;SDS011;64718;52.124;6.226;2023-12-22T04:27:09;5.97;;;1.15;;
76021;SDS011;64718;52.124;6.226;2023-12-22T04:29:35;1.60;;;0.40;;
76021;SDS011;64718;52.124;6.226;2023-12-22T04:32:02;2.65;;;0.60;;
76021;SDS011;64718;52.124;6.226;2023-12-22T04:34:29;1.70;;;0.30;;
76021;SDS011;64718;52.124;6.226;2023-12-22T04:36:55;2.72;;;0.82;;
76021;SDS011;64718;52.124;6.226;2023-12-22T04:39:22;3.38;;;0.50;;
76021;SDS011;64718;52.124;6.226;2023-12-22T04:41:50;3.20;;;0.95;;
76021;SDS011;64718;52.124;6.226;2023-12-22T04:44:16;1.15;;;0.32;;
76021;SDS011;64718;52.124;6.226;2023-12-22T04:46:43;4.60;;;1.45;;
76021;SDS011;64718;52.124;6.226;2023-12-22T04:49:09;3.30;;;0.50;;
76021;SDS011;64718;52.124;6.226;2023-12-22T04:51:36;7.00;;;0.80;;
76021;SDS011;64718;52.124;6.226;2023-12-22T04:54:02;3.00;;;0.60;;
76021;SDS011;64718;52.124;6.226;2023-12-22T04:56:29;0.85;;;0.52;;
76021;SDS011;64718;52.124;6.226;2023-12-22T04:58:57;4.68;;;0.80;;
76021;SDS011;64718;52.124;6.226;2023-12-22T05:01:22;7.85;;;0.70;;
76021;SDS011;64718;52.124;6.226;2023-12-22T05:03:49;3.33;;;0.40;;
76021;SDS011;64718;52.124;6.226;2023-12-22T05:06:15;3.95;;;0.57;;
76021;SDS011;64718;52.124;6.226;2023-12-22T05:08:42;4.22;;;1.42;;
76021;SDS011;64718;52.124;6.226;2023-12-22T05:11:08;2.03;;;0.20;;
76021;SDS011;64718;52.124;6.226;2023-12-22T05:13:35;2.97;;;0.30;;
76021;SDS011;64718;52.124;6.226;2023-12-22T05:16:03;5.43;;;0.98;;
76021;SDS011;64718;52.124;6.226;2023-12-22T05:18:30;4.65;;;0.52;;
76021;SDS011;64718;52.124;6.226;2023-12-22T05:20:56;5.00;;;0.68;;
76021;SDS011;64718;52.124;6.226;2023-12-22T05:23:23;2.15;;;0.80;;
76021;SDS011;64718;52.124;6.226;2023-12-22T05:25:49;5.15;;;0.55;;
76021;SDS011;64718;52.124;6.226;2023-12-22T05:28:16;6.82;;;0.80;;
76021;SDS011;64718;52.124;6.226;2023-12-22T05:30:43;7.68;;;1.27;;
76021;SDS011;64718;52.124;6.226;2023-12-22T05:33:10;6.05;;;0.60;;
76021;SDS011;64718;52.124;6.226;2023-12-22T05:35:37;6.65;;;1.05;;
76021;SDS011;64718;52.124;6.226;2023-12-22T05:38:03;2.33;;;0.77;;
76021;SDS011;64718;52.124;6.226;2023-12-22T05:40:30;6.40;;;0.90;;
76021;SDS011;64718;52.124;6.226;2023-12-22T05:42:57;7.07;;;1.77;;
76021;SDS011;64718;52.124;6.226;2023-12-22T05:45:24;4.90;;;1.02;;
76021;SDS011;64718;52.124;6.226;2023-12-22T05:47:50;3.42;;;0.38;;
76021;SDS011;64718;52.124;6.226;2023-12-22T05:50:18;4.60;;;0.80;;
76021;SDS011;64718;52.124;6.226;2023-12-22T05:52:45;6.53;;;1.02;;
76021;SDS011;64718;52.124;6.226;2023-12-22T05:55:11;2.58;;;0.60;;
76021;SDS011;64718;52.124;6.226;2023-12-22T05:57:38;5.63;;;1.20;;
76021;SDS011;64718;52.124;6.226;2023-12-22T06:00:05;4.35;;;1.35;;
76021;SDS011;64718;52.124;6.226;2023-12-22T06:02:34;11.63;;;0.82;;
76021;SDS011;64718;52.124;6.226;2023-12-22T06:05:01;7.18;;;0.93;;
76021;SDS011;64718;52.124;6.226;2023-12-22T06:07:29;9.52;;;1.95;;
76021;SDS011;64718;52.124;6.226;2023-12-22T06:09:56;8.45;;;1.05;;
76021;SDS011;64718;52.124;6.226;2023-12-22T06:12:22;6.57;;;0.80;;
76021;SDS011;64718;52.124;6.226;2023-12-22T06:14:49;5.57;;;0.88;;
76021;SDS011;64718;52.124;6.226;2023-12-22T06:17:15;5.25;;;0.80;;
76021;SDS011;64718;52.124;6.226;2023-12-22T06:19:42;12.20;;;1.08;;
76021;SDS011;64718;52.124;6.226;2023-12-22T06:22:08;12.07;;;1.45;;
76021;SDS011;64718;52.124;6.226;2023-12-22T06:24:36;6.28;;;1.25;;
76021;SDS011;64718;52.124;6.226;2023-12-22T06:27:03;6.75;;;1.25;;
76021;SDS011;64718;52.124;6.226;2023-12-22T06:29:31;6.32;;;1.08;;
76021;SDS011;64718;52.124;6.226;2023-12-22T06:31:58;6.47;;;1.33;;
76021;SDS011;64718;52.124;6.226;2023-12-22T06:34:24;6.60;;;1.42;;
76021;SDS011;64718;52.124;6.226;2023-12-22T06:36:51;6.50;;;1.60;;
76021;SDS011;64718;52.124;6.226;2023-12-22T06:39:18;9.23;;;1.90;;
76021;SDS011;64718;52.124;6.226;2023-12-22T06:41:46;2.85;;;0.80;;
76021;SDS011;64718;52.124;6.226;2023-12-22T06:44:12;3.10;;;0.43;;
76021;SDS011;64718;52.124;6.226;2023-12-22T06:46:39;4.18;;;0.40;;
76021;SDS011;64718;52.124;6.226;2023-12-22T06:49:05;1.52;;;0.20;;
76021;SDS011;64718;52.124;6.226;2023-12-22T06:51:32;2.58;;;0.17;;
76021;SDS011;64718;52.124;6.226;2023-12-22T06:54:00;0.57;;;0.22;;
76021;SDS011;64718;52.124;6.226;2023-12-22T06:56:28;2.92;;;0.38;;
76021;SDS011;64718;52.124;6.226;2023-12-22T06:58:56;1.52;;;0.32;;
76021;SDS011;64718;52.124;6.226;2023-12-22T07:01:24;5.32;;;0.32;;
76021;SDS011;64718;52.124;6.226;2023-12-22T07:03:51;2.80;;;0.75;;
76021;SDS011;64718;52.124;6.226;2023-12-22T07:06:18;4.53;;;0.82;;
76021;SDS011;64718;52.124;6.226;2023-12-22T07:11:50;4.65;;;0.32;;
76021;SDS011;64718;52.124;6.226;2023-12-22T07:14:19;2.28;;;0.50;;
76021;SDS011;64718;52.124;6.226;2023-12-22T07:16:45;3.60;;;0.45;;
76021;SDS011;64718;52.124;6.226;2023-12-22T07:19:12;1.90;;;0.20;;
76021;SDS011;64718;52.124;6.226;2023-12-22T07:21:39;5.30;;;0.73;;
76021;SDS011;64718;52.124;6.226;2023-12-22T07:24:05;2.85;;;0.65;;
76021;SDS011;64718;52.124;6.226;2023-12-22T07:26:32;7.32;;;0.95;;
76021;SDS011;64718;52.124;6.226;2023-12-22T07:28:59;3.95;;;1.02;;
76021;SDS011;64718;52.124;6.226;2023-12-22T07:31:27;2.53;;;0.60;;
76021;SDS011;64718;52.124;6.226;2023-12-22T07:33:53;1.75;;;0.32;;
76021;SDS011;64718;52.124;6.226;2023-12-22T07:36:20;8.68;;;0.85;;
76021;SDS011;64718;52.124;6.226;2023-12-22T07:38:46;3.13;;;0.40;;
76021;SDS011;64718;52.124;6.226;2023-12-22T07:41:13;5.47;;;0.40;;
76021;SDS011;64718;52.124;6.226;2023-12-22T07:43:39;3.58;;;0.57;;
76021;SDS011;64718;52.124;6.226;2023-12-22T07:46:07;8.50;;;0.98;;
76021;SDS011;64718;52.124;6.226;2023-12-22T07:48:35;7.60;;;1.02;;
76021;SDS011;64718;52.124;6.226;2023-12-22T07:51:02;3.10;;;0.80;;
76021;SDS011;64718;52.124;6.226;2023-12-22T07:53:29;2.95;;;0.52;;
76021;SDS011;64718;52.124;6.226;2023-12-22T07:55:55;11.70;;;0.90;;
76021;SDS011;64718;52.124;6.226;2023-12-22T07:58:24;9.18;;;1.23;;
76021;SDS011;64718;52.124;6.226;2023-12-22T08:00:50;11.00;;;1.65;;
76021;SDS011;64718;52.124;6.226;2023-12-22T08:03:17;6.40;;;0.77;;
76021;SDS011;64718;52.124;6.226;2023-12-22T08:05:46;5.20;;;1.13;;
76021;SDS011;64718;52.124;6.226;2023-12-22T08:08:12;12.88;;;1.23;;
76021;SDS011;64718;52.124;6.226;2023-12-22T08:10:39;6.38;;;1.60;;
76021;SDS011;64718;52.124;6.226;2023-12-22T08:13:05;6.72;;;1.17;;
76021;SDS011;64718;52.124;6.226;2023-12-22T08:15:32;10.40;;;1.98;;
76021;SDS011;64718;52.124;6.226;2023-12-22T08:17:58;10.35;;;1.55;;
76021;SDS011;64718;52.124;6.226;2023-12-22T08:20:25;8.75;;;1.58;;
76021;SDS011;64718;52.124;6.226;2023-12-22T08:22:52;9.23;;;1.48;;
76021;SDS011;64718;52.124;6.226;2023-12-22T08:25:19;10.43;;;1.10;;
76021;SDS011;64718;52.124;6.226;2023-12-22T08:27:46;9.35;;;1.77;;
76021;SDS011;64718;52.124;6.226;2023-12-22T08:30:12;5.82;;;1.42;;
76021;SDS011;64718;52.124;6.226;2023-12-22T08:32:39;6.18;;;1.25;;
76021;SDS011;64718;52.124;6.226;2023-12-22T08:35:06;7.30;;;1.38;;
76021;SDS011;64718;52.124;6.226;2023-12-22T08:37:33;9.27;;;1.73;;
76021;SDS011;64718;52.124;6.226;2023-12-22T08:40:01;13.43;;;2.65;;
76021;SDS011;64718;52.124;6.226;2023-12-22T08:42:28;6.53;;;1.55;;
76021;SDS011;64718;52.124;6.226;2023-12-22T08:44:54;10.13;;;1.67;;
76021;SDS011;64718;52.124;6.226;2023-12-22T08:47:21;9.38;;;1.17;;
76021;SDS011;64718;52.124;6.226;2023-12-22T08:49:47;3.58;;;0.88;;
76021;SDS011;64718;52.124;6.226;2023-12-22T08:52:14;12.55;;;1.85;;
76021;SDS011;64718;52.124;6.226;2023-12-22T08:54:40;5.70;;;1.15;;
76021;SDS011;64718;52.124;6.226;2023-12-22T08:57:08;10.32;;;1.48;;
76021;SDS011;64718;52.124;6.226;2023-12-22T08:59:35;11.32;;;1.50;;
76021;SDS011;64718;52.124;6.226;2023-12-22T09:02:02;6.80;;;1.73;;
76021;SDS011;64718;52.124;6.226;2023-12-22T09:04:29;8.05;;;1.17;;
76021;SDS011;64718;52.124;6.226;2023-12-22T09:06:55;9.02;;;1.45;;
76021;SDS011;64718;52.124;6.226;2023-12-22T09:09:22;12.18;;;1.40;;
76021;SDS011;64718;52.124;6.226;2023-12-22T09:11:49;6.63;;;1.40;;
76021;SDS011;64718;52.124;6.226;2023-12-22T09:14:17;4.50;;;1.02;;
76021;SDS011;64718;52.124;6.226;2023-12-22T09:16:44;8.00;;;0.85;;
76021;SDS011;64718;52.124;6.226;2023-12-22T09:19:10;9.27;;;1.38;;
76021;SDS011;64718;52.124;6.226;2023-12-22T09:21:37;6.70;;;1.00;;
76021;SDS011;64718;52.124;6.226;2023-12-22T09:24:03;3.58;;;0.80;;
76021;SDS011;64718;52.124;6.226;2023-12-22T09:26:30;12.02;;;1.23;;
76021;SDS011;64718;52.124;6.226;2023-12-22T09:28:57;5.38;;;1.13;;
76021;SDS011;64718;52.124;6.226;2023-12-22T09:31:24;7.85;;;1.42;;
76021;SDS011;64718;52.124;6.226;2023-12-22T09:33:51;4.82;;;0.88;;
76021;SDS011;64718;52.124;6.226;2023-12-22T09:36:17;8.77;;;2.22;;
76021;SDS011;64718;52.124;6.226;2023-12-22T09:38:44;9.65;;;2.42;;
76021;SDS011;64718;52.124;6.226;2023-12-22T09:41:10;18.38;;;2.33;;
76021;SDS011;64718;52.124;6.226;2023-12-22T09:43:37;13.50;;;2.35;;
76021;SDS011;64718;52.124;6.226;2023-12-22T09:46:05;16.45;;;2.88;;
76021;SDS011;64718;52.124;6.226;2023-12-22T09:48:34;12.10;;;2.03;;
76021;SDS011;64718;52.124;6.226;2023-12-22T09:51:05;6.22;;;1.30;;
76021;SDS011;64718;52.124;6.226;2023-12-22T09:53:33;8.65;;;1.67;;
76021;SDS011;64718;52.124;6.226;2023-12-22T09:56:01;12.10;;;2.05;;
76021;SDS011;64718;52.124;6.226;2023-12-22T09:58:29;11.20;;;2.03;;
76021;SDS011;64718;52.124;6.226;2023-12-22T10:00:56;10.20;;;1.90;;
76021;SDS011;64718;52.124;6.226;2023-12-22T10:03:23;9.50;;;1.50;;
76021;SDS011;64718;52.124;6.226;2023-12-22T10:05:52;11.30;;;1.75;;
76021;SDS011;64718;52.124;6.226;2023-12-22T10:08:19;7.00;;;1.67;;
76021;SDS011;64718;52.124;6.226;2023-12-22T10:10:46;4.90;;;1.50;;
76021;SDS011;64718;52.124;6.226;2023-12-22T10:13:13;6.80;;;1.27;;
76021;SDS011;64718;52.124;6.226;2023-12-22T10:15:40;5.80;;;1.13;;
76021;SDS011;64718;52.124;6.226;2023-12-22T10:18:09;10.38;;;1.92;;
76021;SDS011;64718;52.124;6.226;2023-12-22T10:20:36;7.18;;;1.50;;
76021;SDS011;64718;52.124;6.226;2023-12-22T10:23:04;6.88;;;1.23;;
76021;SDS011;64718;52.124;6.226;2023-12-22T10:25:31;8.73;;;1.90;;
76021;SDS011;64718;52.124;6.226;2023-12-22T10:27:58;9.05;;;1.73;;
76021;SDS011;64718;52.124;6.226;2023-12-22T10:30:24;6.75;;;0.85;;
76021;SDS011;64718;52.124;6.226;2023-12-22T10:32:53;3.40;;;0.50;;
76021;SDS011;64718;52.124;6.226;2023-12-22T10:35:20;4.30;;;0.47;;
76021;SDS011;64718;52.124;6.226;2023-12-22T10:37:46;4.63;;;0.70;;
76021;SDS011;64718;52.124;6.226;2023-12-22T10:40:17;1.20;;;0.50;;
76021;SDS011;64718;52.124;6.226;2023-12-22T10:42:44;5.25;;;1.02;;
76021;SDS011;64718;52.124;6.226;2023-12-22T10:45:12;2.35;;;0.40;;
76021;SDS011;64718;52.124;6.226;2023-12-22T10:47:40;1.98;;;0.35;;
76021;SDS011;64718;52.124;6.226;2023-12-22T10:50:07;3.72;;;0.63;;
76021;SDS011;64718;52.124;6.226;2023-12-22T10:52:37;6.28;;;0.75;;
76021;SDS011;64718;52.124;6.226;2023-12-22T10:55:04;2.13;;;0.32;;
76021;SDS011;64718;52.124;6.226;2023-12-22T10:57:33;0.68;;;0.22;;
76021;SDS011;64718;52.124;6.226;2023-12-22T11:00:02;4.63;;;0.30;;
76021;SDS011;64718;52.124;6.226;2023-12-22T11:02:32;5.05;;;0.32;;
76021;SDS011;64718;52.124;6.226;2023-12-22T11:05:00;4.43;;;0.50;;
76021;SDS011;64718;52.124;6.226;2023-12-22T11:07:30;2.13;;;0.73;;
76021;SDS011;64718;52.124;6.226;2023-12-22T11:10:00;4.72;;;0.60;;
76021;SDS011;64718;52.124;6.226;2023-12-22T11:12:29;2.58;;;0.43;;
76021;SDS011;64718;52.124;6.226;2023-12-22T11:14:58;3.38;;;0.43;;
76021;SDS011;64718;52.124;6.226;2023-12-22T11:17:28;3.33;;;0.57;;
76021;SDS011;64718;52.124;6.226;2023-12-22T11:19:56;4.25;;;0.77;;
76021;SDS011;64718;52.124;6.226;2023-12-22T11:22:24;4.40;;;0.68;;
76021;SDS011;64718;52.124;6.226;2023-12-22T11:24:52;2.28;;;1.02;;
76021;SDS011;64718;52.124;6.226;2023-12-22T11:27:19;8.23;;;1.13;;
76021;SDS011;64718;52.124;6.226;2023-12-22T11:29:47;5.70;;;1.00;;
76021;SDS011;64718;52.124;6.226;2023-12-22T11:32:16;2.28;;;0.55;;
76021;SDS011;64718;52.124;6.226;2023-12-22T11:34:44;4.57;;;0.93;;
76021;SDS011;64718;52.124;6.226;2023-12-22T11:37:11;2.05;;;0.55;;
76021;SDS011;64718;52.124;6.226;2023-12-22T11:39:39;2.40;;;0.60;;
76021;SDS011;64718;52.124;6.226;2023-12-22T11:42:06;7.53;;;0.65;;
76021;SDS011;64718;52.124;6.226;2023-12-22T11:44:35;3.85;;;0.50;;
76021;SDS011;64718;52.124;6.226;2023-12-22T11:47:05;5.22;;;0.80;;
76021;SDS011;64718;52.124;6.226;2023-12-22T11:49:33;5.55;;;0.80;;
76021;SDS011;64718;52.124;6.226;2023-12-22T11:52:14;5.85;;;0.50;;
76021;SDS011;64718;52.124;6.226;2023-12-22T11:54:45;4.13;;;1.20;;
76021;SDS011;64718;52.124;6.226;2023-12-22T11:57:31;2.80;;;0.65;;
76021;SDS011;64718;52.124;6.226;2023-12-22T12:00:01;4.40;;;0.93;;
76021;SDS011;64718;52.124;6.226;2023-12-22T12:02:31;5.47;;;1.20;;
76021;SDS011;64718;52.124;6.226;2023-12-22T12:05:00;6.18;;;1.25;;
76021;SDS011;64718;52.124;6.226;2023-12-22T12:07:36;4.30;;;1.20;;
76021;SDS011;64718;52.124;6.226;2023-12-22T12:10:09;1.95;;;0.95;;
76021;SDS011;64718;52.124;6.226;2023-12-22T12:12:37;2.97;;;0.40;;
76021;SDS011;64718;52.124;6.226;2023-12-22T12:15:08;2.60;;;0.38;;
76021;SDS011;64718;52.124;6.226;2023-12-22T12:17:40;1.85;;;0.60;;
76021;SDS011;64718;52.124;6.226;2023-12-22T12:20:09;4.53;;;0.65;;
76021;SDS011;64718;52.124;6.226;2023-12-22T12:22:37;5.68;;;1.02;;
76021;SDS011;64718;52.124;6.226;2023-12-22T12:25:09;2.40;;;0.43;;
76021;SDS011;64718;52.124;6.226;2023-12-22T12:27:36;3.13;;;0.70;;
76021;SDS011;64718;52.124;6.226;2023-12-22T12:30:09;3.50;;;0.65;;
76021;SDS011;64718;52.124;6.226;2023-12-22T12:32:38;2.75;;;0.55;;
76021;SDS011;64718;52.124;6.226;2023-12-22T12:35:05;9.38;;;1.08;;
76021;SDS011;64718;52.124;6.226;2023-12-22T12:37:34;6.57;;;1.60;;
76021;SDS011;64718;52.124;6.226;2023-12-22T12:40:03;3.35;;;1.25;;
76021;SDS011;64718;52.124;6.226;2023-12-22T12:42:33;3.95;;;1.30;;
76021;SDS011;64718;52.124;6.226;2023-12-22T12:45:03;6.13;;;1.80;;
76021;SDS011;64718;52.124;6.226;2023-12-22T12:47:30;9.10;;;0.93;;
76021;SDS011;64718;52.124;6.226;2023-12-22T12:49:57;6.50;;;1.30;;
76021;SDS011;64718;52.124;6.226;2023-12-22T12:52:24;5.07;;;1.08;;
76021;SDS011;64718;52.124;6.226;2023-12-22T12:54:52;3.97;;;0.70;;
76021;SDS011;64718;52.124;6.226;2023-12-22T12:57:19;11.90;;;1.13;;
76021;SDS011;64718;52.124;6.226;2023-12-22T12:59:46;3.50;;;0.43;;
76021;SDS011;64718;52.124;6.226;2023-12-22T13:02:13;4.28;;;0.80;;
76021;SDS011;64718;52.124;6.226;2023-12-22T13:04:40;3.05;;;0.80;;
76021;SDS011;64718;52.124;6.226;2023-12-22T13:07:07;5.28;;;0.85;;
76021;SDS011;64718;52.124;6.226;2023-12-22T13:09:35;6.50;;;0.70;;
76021;SDS011;64718;52.124;6.226;2023-12-22T13:12:04;3.80;;;1.00;;
76021;SDS011;64718;52.124;6.226;2023-12-22T13:14:31;6.43;;;0.90;;
76021;SDS011;64718;52.124;6.226;2023-12-22T13:16:57;8.20;;;1.17;;
76021;SDS011;64718;52.124;6.226;2023-12-22T13:19:25;6.55;;;1.40;;
76021;SDS011;64718;52.124;6.226;2023-12-22T13:21:52;3.60;;;0.95;;
76021;SDS011;64718;52.124;6.226;2023-12-22T13:24:19;8.23;;;1.10;;
76021;SDS011;64718;52.124;6.226;2023-12-22T13:26:46;5.45;;;0.73;;
76021;SDS011;64718;52.124;6.226;2023-12-22T13:29:14;1.98;;;0.40;;
76021;SDS011;64718;52.124;6.226;2023-12-22T13:31:41;4.43;;;0.45;;
76021;SDS011;64718;52.124;6.226;2023-12-22T13:34:08;4.32;;;0.40;;
76021;SDS011;64718;52.124;6.226;2023-12-22T13:36:35;1.65;;;0.45;;
76021;SDS011;64718;52.124;6.226;2023-12-22T13:39:02;4.18;;;1.20;;
76021;SDS011;64718;52.124;6.226;2023-12-22T13:41:31;4.78;;;1.52;;
76021;SDS011;64718;52.124;6.226;2023-12-22T13:44:01;6.00;;;0.43;;
76021;SDS011;64718;52.124;6.226;2023-12-22T13:46:30;3.67;;;0.80;;
76021;SDS011;64718;52.124;6.226;2023-12-22T13:48:58;4.85;;;0.65;;
76021;SDS011;64718;52.124;6.226;2023-12-22T13:51:24;2.10;;;0.45;;
76021;SDS011;64718;52.124;6.226;2023-12-22T13:53:51;2.15;;;0.68;;
76021;SDS011;64718;52.124;6.226;2023-12-22T13:56:17;4.90;;;1.10;;
76021;SDS011;64718;52.124;6.226;2023-12-22T13:58:44;1.48;;;0.40;;
76021;SDS011;64718;52.124;6.226;2023-12-22T14:01:14;1.85;;;0.63;;
76021;SDS011;64718;52.124;6.226;2023-12-22T14:03:43;3.00;;;0.52;;
76021;SDS011;64718;52.124;6.226;2023-12-22T14:06:11;1.65;;;0.40;;
76021;SDS011;64718;52.124;6.226;2023-12-22T14:08:38;2.15;;;0.63;;
76021;SDS011;64718;52.124;6.226;2023-12-22T14:11:05;2.58;;;1.08;;
76021;SDS011;64718;52.124;6.226;2023-12-22T14:13:32;3.58;;;0.68;;
76021;SDS011;64718;52.124;6.226;2023-12-22T14:16:00;2.55;;;0.65;;
76021;SDS011;64718;52.124;6.226;2023-12-22T14:18:27;5.38;;;1.17;;
76021;SDS011;64718;52.124;6.226;2023-12-22T14:20:55;5.00;;;0.45;;
76021;SDS011;64718;52.124;6.226;2023-12-22T14:23:21;2.35;;;0.28;;
76021;SDS011;64718;52.124;6.226;2023-12-22T14:25:48;3.22;;;0.40;;
76021;SDS011;64718;52.124;6.226;2023-12-22T14:28:14;2.83;;;0.50;;
76021;SDS011;64718;52.124;6.226;2023-12-22T14:30:41;3.45;;;0.70;;
76021;SDS011;64718;52.124;6.226;2023-12-22T14:33:07;2.90;;;0.30;;
76021;SDS011;64718;52.124;6.226;2023-12-22T14:35:34;3.40;;;0.70;;
76021;SDS011;64718;52.124;6.226;2023-12-22T14:38:03;3.88;;;0.80;;
76021;SDS011;64718;52.124;6.226;2023-12-22T14:40:30;4.47;;;0.50;;
76021;SDS011;64718;52.124;6.226;2023-12-22T14:42:56;5.97;;;0.60;;
76021;SDS011;64718;52.124;6.226;2023-12-22T14:45:24;3.03;;;0.77;;
76021;SDS011;64718;52.124;6.226;2023-12-22T14:47:50;4.80;;;0.65;;
76021;SDS011;64718;52.124;6.226;2023-12-22T14:50:18;2.47;;;0.30;;